Time;durP1;ratioP1;P1;durP2;ratioP2;P2;SDS_P1;SDS_P2;PMS_P1;PMS_P2;Temp;Humidity;BMP_temperature;BMP_pressure;BME280_temperature;BME280_humidity;BME280_pressure;Samples;Min_cycle;Max_cycle;Signal;HPM_P1;HPM_P2
2023/03/07 00:00:08;;;;;;;1.83;1.60;;;;;;;5.58;71.56;98395.19;5109923;28;20220;-59
2023/03/07 00:02:35;;;;;;;1.20;1.10;;;;;;;5.61;71.81;98395.84;5109673;28;20213;-60
2023/03/07 00:05:02;;;;;;;1.70;1.60;;;;;;;5.62;71.73;98392.38;5109901;28;20208;-58
2023/03/07 00:07:28;;;;;;;1.83;1.43;;;;;;;5.72;71.99;98391.78;5113304;28;20706;-59
2023/03/07 00:09:55;;;;;;;1.93;1.80;;;;;;;5.70;71.59;98393.59;5113523;28;20198;-61
2023/03/07 00:12:22;;;;;;;1.60;1.10;;;;;;;5.67;72.10;98397.16;5113544;28;20228;-60
2023/03/07 00:14:50;;;;;;;2.53;2.13;;;;;;;5.65;73.16;98394.72;5113712;28;20193;-59
2023/03/07 00:17:17;;;;;;;2.47;2.27;;;;;;;5.64;73.94;98400.72;5113358;28;20224;-59
2023/03/07 00:19:44;;;;;;;2.00;1.33;;;;;;;5.81;72.22;98396.28;5113251;28;20208;-59
2023/03/07 00:22:11;;;;;;;1.70;1.23;;;;;;;6.19;70.44;98395.56;5113692;28;20225;-59
2023/03/07 00:24:38;;;;;;;1.13;1.03;;;;;;;6.53;68.37;98389.06;5113423;28;20189;-58
2023/03/07 00:27:05;;;;;;;1.13;1.00;;;;;;;6.77;68.32;98389.13;5113509;28;20220;-58
2023/03/07 00:29:32;;;;;;;6.07;1.60;;;;;;;6.99;65.92;98385.97;5113480;28;20573;-59
2023/03/07 00:32:00;;;;;;;0.60;0.60;;;;;;;7.22;65.44;98377.56;5113349;28;20696;-60
2023/03/07 00:34:27;;;;;;;1.47;1.33;;;;;;;7.28;64.65;98376.31;5113835;28;20193;-59
2023/03/07 00:36:54;;;;;;;0.50;0.50;;;;;;;7.42;64.04;98368.53;5113571;28;20197;-61
2023/03/07 00:39:21;;;;;;;1.80;1.40;;;;;;;7.23;65.07;98365.66;5113408;28;20200;-59
2023/03/07 00:41:48;;;;;;;1.40;1.30;;;;;;;7.31;66.87;98358.31;5113380;28;20203;-59
2023/03/07 00:44:15;;;;;;;2.83;1.70;;;;;;;7.51;65.36;98361.16;5113418;27;20300;-61
2023/03/07 00:46:41;;;;;;;2.40;1.53;;;;;;;7.33;65.52;98353.94;5113364;28;20204;-61
2023/03/07 00:49:10;;;;;;;0.93;0.90;;;;;;;7.24;65.98;98349.47;5113309;28;20189;-61
2023/03/07 00:51:37;;;;;;;1.30;1.20;;;;;;;7.32;65.09;98352.28;5113252;28;20208;-61
2023/03/07 00:54:04;;;;;;;1.03;0.63;;;;;;;7.33;65.33;98343.75;5112907;28;20237;-59
2023/03/07 00:56:30;;;;;;;1.57;1.47;;;;;;;7.26;65.79;98345.09;5113217;28;20194;-59
2023/03/07 00:58:57;;;;;;;2.23;1.00;;;;;;;7.33;66.23;98338.66;5112832;28;20213;-59
2023/03/07 01:01:25;;;;;;;2.00;1.53;;;;;;;7.22;67.05;98336.06;5112706;28;20588;-61
2023/03/07 01:03:53;;;;;;;0.70;0.70;;;;;;;7.17;66.87;98338.13;5112574;28;20221;-59
2023/03/07 01:06:23;;;;;;;1.50;1.40;;;;;;;7.00;67.83;98331.66;5113165;28;20554;-61
2023/03/07 01:08:50;;;;;;;0.57;0.53;;;;;;;6.94;68.15;98332.09;5112679;28;20235;-61
2023/03/07 01:11:18;;;;;;;1.53;1.40;;;;;;;6.91;69.31;98322.94;5112708;28;20197;-59
2023/03/07 01:13:44;;;;;;;1.30;1.20;;;;;;;6.86;68.91;98334.34;5111991;28;20233;-61
2023/03/07 01:16:15;;;;;;;1.77;1.37;;;;;;;6.93;69.68;98328.75;5112748;28;20205;-61
2023/03/07 01:18:42;;;;;;;1.37;0.87;;;;;;;6.84;70.31;98323.50;5111225;28;20225;-61
2023/03/07 01:21:14;;;;;;;1.70;1.60;;;;;;;6.87;69.87;98321.56;5112478;28;20590;-61
2023/03/07 01:23:42;;;;;;;2.13;1.00;;;;;;;6.94;69.74;98327.81;5112896;28;20420;-61
2023/03/07 01:26:12;;;;;;;1.20;0.90;;;;;;;6.83;70.94;98330.28;5112501;28;20193;-61
2023/03/07 01:28:39;;;;;;;3.50;1.67;;;;;;;6.84;70.38;98326.84;5112290;27;20471;-61
2023/03/07 01:31:06;;;;;;;3.17;1.47;;;;;;;6.91;69.92;98327.22;5112608;28;20196;-59
2023/03/07 01:33:33;;;;;;;1.97;0.90;;;;;;;6.87;69.17;98326.63;5112043;28;20225;-59
2023/03/07 01:35:59;;;;;;;1.33;1.20;;;;;;;6.78;71.33;98322.19;5112284;28;20204;-61
2023/03/07 01:38:27;;;;;;;2.07;1.13;;;;;;;6.69;72.01;98318.56;5111902;28;20213;-59
2023/03/07 01:40:55;;;;;;;2.83;1.53;;;;;;;6.70;71.31;98314.28;5111899;28;20200;-59
2023/03/07 01:43:25;;;;;;;1.63;0.87;;;;;;;6.66;71.67;98315.38;5111993;28;20627;-61
2023/03/07 01:46:30;;;;;;;1.13;1.03;;;;;;;6.67;72.04;98309.41;5112035;28;20193;-59
2023/03/07 01:49:01;;;;;;;0.80;0.80;;;;;;;6.68;72.21;98308.47;5111760;28;20224;-61
2023/03/07 01:51:29;;;;;;;1.50;0.60;;;;;;;6.67;72.13;98306.88;5112123;28;20201;-59
2023/03/07 01:53:57;;;;;;;1.00;0.90;;;;;;;6.74;72.63;98297.91;5111574;28;20239;-59
2023/03/07 01:56:26;;;;;;;1.90;1.07;;;;;;;6.68;72.96;98299.13;5111934;28;20201;-59
2023/03/07 01:58:54;;;;;;;1.13;1.07;;;;;;;6.76;73.00;98303.69;5111675;28;20224;-59
2023/03/07 02:01:23;;;;;;;2.63;1.33;;;;;;;6.77;73.01;98300.22;5111698;28;20197;-61
2023/03/07 02:03:53;;;;;;;4.37;1.57;;;;;;;6.85;73.15;98302.25;5111839;28;20220;-61
2023/03/07 02:06:21;;;;;;;1.80;1.03;;;;;;;6.85;73.47;98297.16;5111380;28;20197;-59
2023/03/07 02:08:49;;;;;;;1.90;1.50;;;;;;;6.82;74.89;98303.25;5111382;28;20216;-61
2023/03/07 02:11:17;;;;;;;2.20;1.33;;;;;;;6.89;74.53;98296.81;5111513;28;20197;-61
2023/03/07 02:13:45;;;;;;;1.40;0.97;;;;;;;6.94;73.98;98301.59;5111094;28;20252;-59
2023/03/07 02:16:13;;;;;;;2.00;1.50;;;;;;;6.92;73.93;98304.25;5111030;28;20196;-59
2023/03/07 02:18:45;;;;;;;1.17;1.07;;;;;;;6.89;73.78;98304.44;5110919;28;20225;-61
2023/03/07 02:21:19;;;;;;;0.77;0.63;;;;;;;6.92;74.34;98309.34;5111368;28;20197;-61
2023/03/07 02:23:53;;;;;;;1.70;1.03;;;;;;;6.92;74.71;98304.25;5110903;28;20217;-61
2023/03/07 02:26:26;;;;;;;1.47;1.27;;;;;;;6.94;74.88;98307.50;5111225;28;20629;-59
2023/03/07 02:28:55;;;;;;;2.17;1.33;;;;;;;6.94;74.43;98310.03;5110535;28;20221;-61
2023/03/07 02:31:22;;;;;;;1.43;1.30;;;;;;;7.16;73.93;98311.09;5111087;28;20193;-59
2023/03/07 02:33:49;;;;;;;1.73;1.20;;;;;;;7.03;74.59;98317.00;5111038;28;20237;-61
2023/03/07 02:36:22;;;;;;;2.30;1.03;;;;;;;7.03;74.27;98317.00;5111291;28;20254;-59
2023/03/07 02:38:51;;;;;;;1.10;0.83;;;;;;;6.97;75.11;98319.97;5111095;28;20270;-59
2023/03/07 02:41:22;;;;;;;0.90;0.80;;;;;;;6.96;75.23;98312.47;5110884;28;20197;-59
2023/03/07 02:43:49;;;;;;;1.43;0.93;;;;;;;6.89;75.79;98321.44;5110589;28;20225;-61
2023/03/07 02:46:18;;;;;;;3.10;1.57;;;;;;;6.79;76.29;98317.00;5110761;28;20216;-59
2023/03/07 02:48:45;;;;;;;1.30;1.13;;;;;;;6.88;75.67;98318.09;5110554;28;20286;-59
2023/03/07 02:51:12;;;;;;;1.43;0.93;;;;;;;6.83;75.64;98314.22;5110816;28;20574;-59
2023/03/07 02:53:39;;;;;;;2.47;1.43;;;;;;;6.76;75.69;98318.94;5110463;28;20814;-59
2023/03/07 02:56:07;;;;;;;2.13;1.23;;;;;;;6.71;75.87;98315.91;5110615;28;20278;-59
2023/03/07 02:58:34;;;;;;;0.80;0.80;;;;;;;6.65;76.21;98318.84;5110553;28;20224;-61
2023/03/07 03:01:01;;;;;;;1.40;1.23;;;;;;;6.61;76.45;98309.84;5110533;28;20205;-61
2023/03/07 03:03:30;;;;;;;2.97;1.57;;;;;;;6.60;76.66;98323.44;5110199;28;20225;-61
2023/03/07 03:05:57;;;;;;;2.50;0.90;;;;;;;6.53;76.93;98318.78;5110222;28;20649;-61
2023/03/07 03:08:24;;;;;;;1.60;1.40;;;;;;;6.44;77.55;98321.94;5110446;28;20224;-61
2023/03/07 03:10:53;;;;;;;1.50;1.07;;;;;;;6.51;77.31;98314.72;5110023;28;20193;-61
2023/03/07 03:13:20;;;;;;;1.30;1.20;;;;;;;6.53;77.13;98323.84;5109937;28;20235;-63
2023/03/07 03:15:47;;;;;;;0.60;0.53;;;;;;;6.56;76.79;98312.69;5110137;28;20208;-59
2023/03/07 03:18:14;;;;;;;1.47;0.80;;;;;;;6.53;77.70;98317.97;5109974;28;20225;-59
2023/03/07 03:20:42;;;;;;;0.80;0.80;;;;;;;6.53;78.34;98318.78;5110083;28;20193;-61
2023/03/07 03:23:09;;;;;;;1.83;1.10;;;;;;;6.69;78.76;98317.72;5110117;28;20640;-59
2023/03/07 03:25:36;;;;;;;1.53;1.30;;;;;;;6.68;78.21;98321.19;5110272;28;20582;-61
2023/03/07 03:28:03;;;;;;;1.83;1.67;;;;;;;6.71;79.10;98323.50;5109993;28;20507;-59
2023/03/07 03:30:31;;;;;;;1.27;1.00;;;;;;;6.72;78.45;98317.50;5109838;28;20203;-61
2023/03/07 03:32:58;;;;;;;1.17;1.07;;;;;;;6.77;77.99;98315.47;5109729;28;20813;-61
2023/03/07 03:35:25;;;;;;;1.83;0.90;;;;;;;6.82;78.36;98322.78;5109974;28;20204;-61
2023/03/07 03:37:53;;;;;;;1.67;0.97;;;;;;;6.71;78.81;98326.06;5109696;28;20221;-61
2023/03/07 03:40:20;;;;;;;2.47;1.10;;;;;;;6.72;78.88;98333.59;5109461;28;20221;-61
2023/03/07 03:42:49;;;;;;;1.43;1.07;;;;;;;6.73;78.89;98329.31;5109694;28;20213;-61
2023/03/07 03:45:16;;;;;;;2.03;1.00;;;;;;;6.65;80.27;98331.56;5109847;28;20225;-61
2023/03/07 03:47:43;;;;;;;1.60;1.43;;;;;;;6.71;79.66;98319.25;5109620;28;20228;-61
2023/03/07 03:50:11;;;;;;;1.67;1.07;;;;;;;6.74;79.67;98308.06;5109863;28;20204;-61
2023/03/07 03:52:38;;;;;;;1.80;0.97;;;;;;;6.87;78.41;98308.03;5109750;28;20213;-61
2023/03/07 03:55:07;;;;;;;2.07;1.33;;;;;;;6.72;79.19;98312.44;5109880;28;20244;-61
2023/03/07 03:57:33;;;;;;;1.87;0.70;;;;;;;6.83;79.15;98315.03;5110027;28;20221;-61
2023/03/07 04:00:01;;;;;;;0.93;0.87;;;;;;;6.82;78.06;98315.97;5109525;28;20203;-61
2023/03/07 04:02:29;;;;;;;1.30;1.20;;;;;;;6.97;78.44;98311.56;5109548;28;20299;-61
2023/03/07 04:04:56;;;;;;;1.63;0.93;;;;;;;7.11;79.50;98321.56;5109549;28;20212;-59
2023/03/07 04:07:24;;;;;;;1.67;1.03;;;;;;;7.03;78.97;98317.00;5109660;28;20232;-59
2023/03/07 04:09:50;;;;;;;1.57;1.30;;;;;;;6.96;78.71;98315.81;5109350;28;20293;-59
2023/03/07 04:12:19;;;;;;;1.87;1.07;;;;;;;7.03;78.37;98322.09;5109544;28;20221;-59
2023/03/07 04:14:46;;;;;;;1.23;0.83;;;;;;;7.16;76.98;98311.09;5109302;28;20654;-59
2023/03/07 04:17:12;;;;;;;1.33;0.90;;;;;;;7.25;76.43;98311.22;5109390;28;20225;-59
2023/03/07 04:19:39;;;;;;;1.53;0.70;;;;;;;7.23;76.64;98312.25;5109360;28;20205;-59
2023/03/07 04:22:06;;;;;;;2.20;1.53;;;;;;;7.07;77.01;98316.78;5109564;28;20217;-59
2023/03/07 04:24:33;;;;;;;2.13;1.10;;;;;;;7.09;78.06;98320.84;5109457;28;20254;-59
2023/03/07 04:27:00;;;;;;;0.60;0.60;;;;;;;7.11;78.24;98318.22;5109420;28;20220;-59
2023/03/07 04:29:29;;;;;;;0.90;0.80;;;;;;;7.02;78.53;98317.94;5109465;28;20197;-59
2023/03/07 04:31:56;;;;;;;0.90;0.90;;;;;;;6.97;78.86;98322.53;5109425;28;20645;-59
2023/03/07 04:34:23;;;;;;;1.83;1.50;;;;;;;7.02;78.90;98330.66;5109214;28;20234;-59
2023/03/07 04:36:50;;;;;;;1.27;1.10;;;;;;;7.05;79.25;98328.81;5109394;28;20205;-59
2023/03/07 04:39:17;;;;;;;1.30;0.87;;;;;;;7.04;79.24;98322.94;5109206;28;20201;-59
2023/03/07 04:41:44;;;;;;;1.03;0.87;;;;;;;7.07;79.36;98321.88;5109404;28;20288;-59
2023/03/07 04:44:11;;;;;;;2.77;1.50;;;;;;;7.20;78.77;98333.63;5109224;28;20217;-59
2023/03/07 04:46:39;;;;;;;1.03;0.93;;;;;;;7.18;78.24;98329.56;5109297;28;20201;-59
2023/03/07 04:49:06;;;;;;;1.70;1.23;;;;;;;7.24;78.42;98334.22;5109320;28;20217;-59
2023/03/07 04:51:33;;;;;;;1.63;1.00;;;;;;;7.23;77.75;98323.22;5109650;28;20208;-59
2023/03/07 04:54:00;;;;;;;3.30;1.80;;;;;;;7.20;77.46;98323.44;5112775;28;20240;-61
2023/03/07 04:56:27;;;;;;;0.70;0.70;;;;;;;6.99;79.62;98324.97;5112949;28;20198;-61
2023/03/07 04:58:53;;;;;;;1.33;0.87;;;;;;;6.86;79.76;98327.53;5112623;28;20213;-61
2023/03/07 05:01:20;;;;;;;1.27;0.90;;;;;;;6.89;79.76;98334.13;5112761;28;20197;-59
2023/03/07 05:03:49;;;;;;;0.97;0.80;;;;;;;6.94;79.83;98332.91;5112553;28;20228;-59
2023/03/07 05:06:16;;;;;;;4.07;0.97;;;;;;;7.05;80.00;98331.34;5112692;28;20253;-59
2023/03/07 05:08:43;;;;;;;1.53;1.43;;;;;;;7.19;78.96;98336.28;5112469;28;20791;-59
2023/03/07 05:11:09;;;;;;;0.93;0.90;;;;;;;7.09;79.13;98341.19;5112498;28;20189;-59
2023/03/07 05:13:36;;;;;;;1.90;1.23;;;;;;;7.10;79.46;98344.53;5112367;28;20217;-59
2023/03/07 05:16:04;;;;;;;0.80;0.77;;;;;;;7.10;79.28;98344.53;5112424;28;20232;-59
2023/03/07 05:18:30;;;;;;;2.00;0.83;;;;;;;7.06;79.45;98343.13;5112441;28;20496;-59
2023/03/07 05:20:59;;;;;;;1.93;1.10;;;;;;;7.04;79.83;98345.81;5112244;28;20197;-59
2023/03/07 05:23:26;;;;;;;1.70;1.00;;;;;;;7.01;79.58;98344.28;5112201;28;20224;-61
2023/03/07 05:25:53;;;;;;;1.53;0.87;;;;;;;7.04;79.29;98348.34;5112134;28;20307;-61
2023/03/07 05:28:20;;;;;;;0.77;0.57;;;;;;;7.05;79.12;98349.16;5112146;28;20220;-62
2023/03/07 05:30:48;;;;;;;1.87;1.07;;;;;;;7.07;79.53;98352.38;5112268;28;20201;-61
2023/03/07 05:33:15;;;;;;;1.50;1.10;;;;;;;7.27;79.46;98354.34;5112130;27;20613;-61
2023/03/07 05:35:42;;;;;;;1.80;0.83;;;;;;;7.36;78.50;98363.88;5111840;28;20240;-61
2023/03/07 05:38:10;;;;;;;1.67;1.10;;;;;;;7.49;78.50;98359.53;5111938;28;20213;-61
2023/03/07 05:40:37;;;;;;;1.80;1.10;;;;;;;7.60;78.46;98358.78;5111832;27;20197;-61
2023/03/07 05:43:04;;;;;;;1.43;1.07;;;;;;;7.67;77.90;98366.75;5111877;28;20713;-59
2023/03/07 05:45:31;;;;;;;3.03;1.40;;;;;;;7.77;76.89;98356.75;5111752;28;20743;-59
2023/03/07 05:47:58;;;;;;;1.37;0.90;;;;;;;7.96;75.73;98362.09;5111914;28;20228;-59
2023/03/07 05:50:25;;;;;;;1.50;1.00;;;;;;;8.07;76.06;98366.44;5111615;28;20665;-59
2023/03/07 05:52:52;;;;;;;2.30;1.30;;;;;;;8.28;75.31;98372.47;5111704;28;20223;-59
2023/03/07 05:55:21;;;;;;;2.37;1.40;;;;;;;8.45;74.73;98373.78;5111428;28;20233;-59
2023/03/07 05:57:48;;;;;;;2.23;1.60;;;;;;;8.71;73.93;98374.38;5111485;28;20225;-59
2023/03/07 06:00:16;;;;;;;1.17;0.90;;;;;;;8.91;72.41;98369.50;5111397;28;20251;-62
2023/03/07 06:02:42;;;;;;;1.83;1.00;;;;;;;9.16;70.65;98373.50;5111593;28;20224;-62
2023/03/07 06:05:10;;;;;;;1.60;1.10;;;;;;;9.39;70.84;98369.16;5110894;28;20193;-59
2023/03/07 06:07:37;;;;;;;1.90;1.17;;;;;;;9.57;70.04;98383.03;5111577;28;20216;-60
2023/03/07 06:10:04;;;;;;;1.67;0.90;;;;;;;9.96;70.68;98373.09;5111317;28;20213;-60
2023/03/07 06:12:32;;;;;;;2.30;0.97;;;;;;;10.31;67.29;98367.69;5111228;28;20217;-59
2023/03/07 06:14:59;;;;;;;1.20;0.97;;;;;;;10.69;65.74;98385.88;5110921;28;20225;-59
2023/03/07 06:17:26;;;;;;;1.80;1.40;;;;;;;11.06;65.79;98379.28;5111232;28;20236;-59
2023/03/07 06:19:53;;;;;;;2.37;1.70;;;;;;;11.58;68.36;98376.50;5111149;28;20287;-59
2023/03/07 06:22:20;;;;;;;2.47;1.40;;;;;;;12.13;64.32;98378.50;5111430;28;20224;-62
2023/03/07 06:24:47;;;;;;;3.90;1.10;;;;;;;12.62;61.98;98384.28;5110918;28;20205;-63
2023/03/07 06:27:14;;;;;;;3.77;1.87;;;;;;;13.15;60.87;98391.34;5111225;28;20222;-63
2023/03/07 06:29:43;;;;;;;2.27;1.50;;;;;;;13.60;59.19;98385.38;5111007;28;20194;-63
2023/03/07 06:32:11;;;;;;;4.00;1.70;;;;;;;14.01;57.10;98388.28;5110734;28;20219;-63
2023/03/07 06:34:38;;;;;;;2.20;1.47;;;;;;;14.34;57.82;98393.63;5110708;28;20227;-63
2023/03/07 06:37:04;;;;;;;3.20;1.80;;;;;;;14.75;54.46;98396.44;5111055;28;20224;-63
2023/03/07 06:39:31;;;;;;;2.70;1.87;;;;;;;14.85;53.09;98392.00;5110877;28;20224;-63
2023/03/07 06:41:58;;;;;;;2.70;1.70;;;;;;;14.59;51.58;98392.03;5110833;28;20673;-60
2023/03/07 06:44:25;;;;;;;2.47;1.93;;;;;;;14.76;51.30;98398.88;5110499;28;20205;-60
2023/03/07 06:46:53;;;;;;;3.23;2.00;;;;;;;15.10;50.22;98401.41;5109598;28;20203;-60
2023/03/07 06:49:20;;;;;;;2.97;1.60;;;;;;;15.30;51.72;98401.13;5110173;28;20575;-63
2023/03/07 06:51:47;;;;;;;2.83;1.80;;;;;;;14.95;51.25;98402.94;5110799;28;20315;-63
2023/03/07 06:54:14;;;;;;;3.80;1.87;;;;;;;15.11;50.19;98397.88;5110027;28;20717;-63
2023/03/07 06:56:41;;;;;;;4.03;2.17;;;;;;;15.33;51.53;98401.63;5110283;28;20210;-63
2023/03/07 06:59:07;;;;;;;4.23;2.30;;;;;;;15.70;49.34;98407.34;5110711;28;20561;-63
2023/03/07 07:01:35;;;;;;;3.93;1.93;;;;;;;16.12;48.90;98406.38;5110200;28;20203;-60
2023/03/07 07:04:03;;;;;;;3.73;1.93;;;;;;;16.04;49.88;98405.41;5110277;28;20225;-63
2023/03/07 07:06:30;;;;;;;2.10;1.57;;;;;;;16.23;47.94;98408.59;5110427;28;20196;-61
2023/03/07 07:08:58;;;;;;;4.73;2.60;;;;;;;16.60;47.34;98407.25;5110218;28;20220;-64
2023/03/07 07:11:26;;;;;;;3.20;1.77;;;;;;;16.73;47.18;98410.91;5110299;28;20204;-61
2023/03/07 07:13:53;;;;;;;3.70;1.83;;;;;;;16.68;48.06;98415.75;5110118;28;20213;-63
2023/03/07 07:16:20;;;;;;;2.53;1.73;;;;;;;16.62;47.44;98419.00;5109302;28;20248;-63
2023/03/07 07:18:47;;;;;;;3.53;2.00;;;;;;;16.52;49.44;98418.38;5110288;28;20221;-63
2023/03/07 07:21:15;;;;;;;7.27;2.80;;;;;;;17.22;48.00;98417.69;5110278;28;20198;-63
2023/03/07 07:23:42;;;;;;;3.30;2.07;;;;;;;17.41;48.27;98414.66;5110131;28;20228;-61
2023/03/07 07:26:09;;;;;;;3.87;2.37;;;;;;;17.42;45.34;98416.28;5110313;28;20206;-63
2023/03/07 07:28:35;;;;;;;4.33;2.10;;;;;;;17.35;47.21;98417.13;5110568;28;20221;-61
2023/03/07 07:31:03;;;;;;;4.70;2.30;;;;;;;17.96;47.55;98409.44;5110077;28;20203;-61
2023/03/07 07:33:30;;;;;;;3.27;2.07;;;;;;;18.46;44.35;98410.59;5110185;28;20225;-61
2023/03/07 07:35:57;;;;;;;3.70;2.00;;;;;;;18.38;45.24;98410.69;5110160;28;20287;-61
2023/03/07 07:38:25;;;;;;;2.67;1.87;;;;;;;18.36;43.98;98413.47;5109774;28;20221;-61
2023/03/07 07:40:52;;;;;;;6.43;2.43;;;;;;;18.25;44.88;98412.09;5109647;28;20194;-63
2023/03/07 07:43:19;;;;;;;5.43;2.20;;;;;;;18.16;45.27;98413.16;5109999;28;20220;-63
2023/03/07 07:45:46;;;;;;;2.37;1.97;;;;;;;18.23;45.27;98408.88;5109880;28;20204;-63
2023/03/07 07:48:13;;;;;;;4.47;1.90;;;;;;;18.60;43.68;98414.97;5109861;28;20228;-61
2023/03/07 07:50:40;;;;;;;2.17;1.50;;;;;;;18.97;45.45;98418.47;5110043;28;21087;-61
2023/03/07 07:53:06;;;;;;;2.20;1.90;;;;;;;19.34;45.12;98416.69;5110022;28;20220;-60
2023/03/07 07:55:35;;;;;;;1.70;1.53;;;;;;;18.35;43.49;98421.38;5109729;28;20233;-61
2023/03/07 07:58:02;;;;;;;2.93;2.10;;;;;;;19.17;45.35;98416.91;5109689;28;20630;-61
2023/03/07 08:00:28;;;;;;;2.13;1.57;;;;;;;18.67;43.65;98409.88;5109665;28;20193;-61
2023/03/07 08:02:55;;;;;;;4.40;1.77;;;;;;;19.09;43.07;98409.25;5109531;28;20717;-63
2023/03/07 08:05:23;;;;;;;1.77;1.30;;;;;;;18.75;43.68;98418.38;5109813;28;20202;-61
2023/03/07 08:07:50;;;;;;;3.67;1.63;;;;;;;19.39;43.05;98417.75;5109832;28;20214;-63
2023/03/07 08:10:18;;;;;;;5.37;2.83;;;;;;;18.49;43.39;98418.00;5109763;28;20204;-61
2023/03/07 08:12:50;;;;;;;6.37;3.00;;;;;;;18.88;45.37;98419.53;5109459;28;20217;-61
2023/03/07 08:15:18;;;;;;;3.30;2.30;;;;;;;18.70;43.40;98418.13;5109377;28;20277;-63
2023/03/07 08:17:45;;;;;;;2.53;2.00;;;;;;;17.40;45.28;98415.63;5109423;28;20312;-63
2023/03/07 08:20:12;;;;;;;2.40;1.40;;;;;;;17.45;45.83;98429.81;5109636;28;20192;-63
2023/03/07 08:22:40;;;;;;;2.90;1.67;;;;;;;17.25;45.25;98435.44;5109605;28;20213;-63
2023/03/07 08:25:08;;;;;;;2.20;1.60;;;;;;;17.67;45.47;98429.03;5110027;28;20207;-60
2023/03/07 08:27:35;;;;;;;4.17;2.03;;;;;;;17.79;46.37;98430.25;5111584;28;20223;-62
2023/03/07 08:30:04;;;;;;;2.93;1.60;;;;;;;17.82;45.70;98426.53;5113342;28;20203;-63
2023/03/07 08:32:30;;;;;;;3.63;1.80;;;;;;;17.72;46.08;98425.94;5113485;28;20223;-60
2023/03/07 08:34:57;;;;;;;2.60;1.67;;;;;;;17.95;46.70;98429.34;5113372;28;20232;-60
2023/03/07 08:37:24;;;;;;;3.63;2.00;;;;;;;18.27;45.68;98423.09;5113143;28;20224;-63
2023/03/07 08:39:51;;;;;;;3.00;1.70;;;;;;;18.46;46.03;98413.19;5113138;28;20199;-63
2023/03/07 08:42:18;;;;;;;4.50;2.17;;;;;;;18.55;45.95;98419.88;5113169;28;20219;-63
2023/03/07 08:44:45;;;;;;;2.70;1.73;;;;;;;19.04;44.86;98421.13;5113229;28;20202;-60
2023/03/07 08:47:13;;;;;;;2.37;1.73;;;;;;;19.45;42.76;98418.78;5113538;28;20214;-60
2023/03/07 08:49:40;;;;;;;2.17;1.60;;;;;;;19.27;43.67;98415.81;5113214;28;20202;-62
2023/03/07 08:52:07;;;;;;;1.33;1.17;;;;;;;19.29;42.50;98424.22;5113578;28;20227;-60
2023/03/07 08:54:34;;;;;;;2.30;1.50;;;;;;;20.10;42.72;98415.22;5112814;28;20203;-64
2023/03/07 08:57:00;;;;;;;2.60;1.50;;;;;;;20.38;41.69;98424.78;5113146;28;20687;-63
2023/03/07 08:59:27;;;;;;;2.23;1.50;;;;;;;20.10;42.42;98422.19;5113611;28;20217;-63
2023/03/07 09:01:56;;;;;;;2.13;1.57;;;;;;;19.23;43.78;98429.16;5112758;28;20202;-61
2023/03/07 09:04:24;;;;;;;2.97;1.70;;;;;;;19.65;42.88;98422.41;5113103;28;20358;-60
2023/03/07 09:06:51;;;;;;;2.80;1.60;;;;;;;20.09;43.43;98426.56;5112638;28;20208;-63
2023/03/07 09:09:18;;;;;;;2.73;1.77;;;;;;;20.39;43.68;98426.41;5112895;28;20201;-63
2023/03/07 09:11:45;;;;;;;2.37;1.50;;;;;;;20.20;41.54;98421.88;5112651;28;20213;-63
2023/03/07 09:14:12;;;;;;;2.10;1.63;;;;;;;19.85;42.28;98420.00;5112863;28;20574;-61
2023/03/07 09:16:39;;;;;;;2.67;1.50;;;;;;;19.45;43.15;98418.78;5112460;28;20238;-60
2023/03/07 09:19:06;;;;;;;3.10;1.67;;;;;;;20.05;42.42;98425.34;5112754;28;20237;-60
2023/03/07 09:21:34;;;;;;;3.50;1.47;;;;;;;20.92;40.37;98425.91;5112574;28;20215;-63
2023/03/07 09:24:01;;;;;;;3.10;1.80;;;;;;;20.94;41.57;98411.75;5112376;28;20223;-63
2023/03/07 09:26:28;;;;;;;2.70;1.50;;;;;;;20.43;43.84;98409.44;5112884;28;20207;-63
2023/03/07 09:28:54;;;;;;;2.40;1.47;;;;;;;20.57;43.78;98410.38;5112225;28;20224;-60
2023/03/07 09:31:21;;;;;;;2.10;1.80;;;;;;;19.88;41.82;98408.44;5112340;28;20195;-60
2023/03/07 09:33:48;;;;;;;2.70;1.60;;;;;;;20.02;41.84;98404.97;5112199;28;20218;-64
2023/03/07 09:36:16;;;;;;;4.13;1.50;;;;;;;20.68;40.64;98409.81;5112262;28;20241;-63
2023/03/07 09:38:45;;;;;;;6.13;1.57;;;;;;;19.83;41.21;98410.78;5110941;28;20654;-63
2023/03/07 09:41:30;;;;;;;3.00;1.60;;;;;;;19.44;42.50;98407.63;5111914;28;20197;-63
2023/03/07 09:44:08;;;;;;;1.97;1.13;;;;;;;19.60;42.54;98413.56;5111757;28;20272;-63
2023/03/07 09:46:47;;;;;;;2.63;1.40;;;;;;;19.95;41.29;98414.47;5112143;28;20204;-63
2023/03/07 09:49:19;;;;;;;1.87;1.57;;;;;;;20.73;41.38;98414.44;5111890;28;20201;-63
2023/03/07 09:51:48;;;;;;;3.43;1.27;;;;;;;20.99;39.78;98411.94;5111622;28;20663;-63
2023/03/07 09:54:20;;;;;;;3.70;1.57;;;;;;;20.99;41.06;98406.75;5111824;28;20609;-63
2023/03/07 09:56:49;;;;;;;1.97;1.40;;;;;;;20.93;40.35;98410.13;5111488;28;20231;-63
2023/03/07 09:59:21;;;;;;;3.37;1.20;;;;;;;20.91;40.05;98404.31;5111669;28;20201;-63
2023/03/07 10:01:51;;;;;;;2.27;1.40;;;;;;;21.02;40.15;98403.75;5111677;28;20606;-63
2023/03/07 10:04:26;;;;;;;3.00;1.40;;;;;;;21.05;41.38;98404.38;5111600;27;20625;-63
2023/03/07 10:06:57;;;;;;;2.00;1.30;;;;;;;21.95;38.69;98399.75;5111629;28;20207;-61
2023/03/07 10:09:26;;;;;;;3.37;1.83;;;;;;;21.48;38.46;98390.09;5111692;28;20197;-60
2023/03/07 10:12:07;;;;;;;1.50;1.37;;;;;;;21.40;40.50;98400.69;5111233;28;20253;-60
2023/03/07 10:14:58;;;;;;;1.93;1.30;;;;;;;21.13;39.02;98391.22;5111193;28;20203;-60
2023/03/07 10:17:41;;;;;;;2.70;1.53;;;;;;;20.69;38.84;98387.25;5111062;28;20230;-60
2023/03/07 10:20:19;;;;;;;1.70;1.37;;;;;;;21.31;38.64;98383.63;5111672;28;20593;-61
2023/03/07 10:22:53;;;;;;;1.93;1.20;;;;;;;21.11;38.12;98377.59;5110986;28;20219;-60
2023/03/07 10:25:26;;;;;;;2.43;1.20;;;;;;;21.81;40.39;98368.50;5111350;28;20204;-60
2023/03/07 10:27:59;;;;;;;1.90;1.27;;;;;;;21.75;39.45;98369.31;5111000;28;20228;-60
2023/03/07 10:30:26;;;;;;;2.07;1.40;;;;;;;21.01;40.00;98368.38;5111151;28;20201;-60
2023/03/07 10:32:57;;;;;;;2.83;1.30;;;;;;;20.78;38.80;98367.91;5110790;28;20224;-60
2023/03/07 10:35:33;;;;;;;4.57;1.50;;;;;;;20.56;39.86;98365.38;5110852;28;20304;-60
2023/03/07 10:38:09;;;;;;;2.97;1.30;;;;;;;21.73;40.17;98360.94;5110743;28;20224;-60
2023/03/07 10:40:43;;;;;;;2.70;1.70;;;;;;;22.46;38.33;98360.03;5110811;28;20200;-61
2023/03/07 10:43:21;;;;;;;2.77;1.63;;;;;;;21.27;39.23;98363.44;5110791;28;20231;-60
2023/03/07 10:45:47;;;;;;;6.03;2.07;;;;;;;21.57;38.97;98361.31;5110617;28;20700;-61
2023/03/07 10:48:19;;;;;;;2.08;1.60;;;;;;;22.28;38.80;98353.69;5110618;28;20221;-60
2023/03/07 10:50:51;;;;;;;2.08;1.42;;;;;;;21.96;37.34;98344.06;5110502;28;20198;-61
2023/03/07 10:53:24;;;;;;;1.73;1.10;;;;;;;21.44;39.77;98344.69;5110601;28;20213;-60
2023/03/07 10:56:07;;;;;;;1.42;1.20;;;;;;;21.11;38.45;98344.59;5110263;28;20236;-59
2023/03/07 10:58:34;;;;;;;1.60;1.33;;;;;;;21.52;38.82;98342.88;5110749;28;20220;-60
2023/03/07 11:01:14;;;;;;;2.20;1.47;;;;;;;21.33;40.16;98340.06;5110414;28;20201;-60
2023/03/07 11:03:47;;;;;;;2.33;1.73;;;;;;;21.80;39.54;98335.69;5110375;28;20217;-60
2023/03/07 11:06:33;;;;;;;4.22;1.50;;;;;;;22.54;38.17;98331.13;5110304;28;20680;-61
2023/03/07 11:09:18;;;;;;;2.37;1.60;;;;;;;21.92;38.71;98325.47;5109944;28;20213;-61
2023/03/07 11:11:55;;;;;;;3.00;1.77;;;;;;;21.70;37.85;98319.69;5110435;28;20212;-60
2023/03/07 11:14:22;;;;;;;3.47;1.70;;;;;;;21.54;38.71;98320.09;5110096;28;20202;-61
2023/03/07 11:16:52;;;;;;;2.08;1.60;;;;;;;21.37;38.33;98315.28;5110226;28;20315;-60
2023/03/07 11:19:41;;;;;;;2.90;1.57;;;;;;;21.01;38.99;98313.78;5110580;28;20654;-60
2023/03/07 11:22:19;;;;;;;2.83;1.63;;;;;;;20.31;40.58;98317.50;5110065;28;20217;-60
2023/03/07 11:24:54;;;;;;;3.20;1.87;;;;;;;21.17;39.44;98314.41;5110006;28;20200;-60
2023/03/07 11:27:33;;;;;;;2.30;1.33;;;;;;;21.48;38.31;98306.88;5109995;28;20224;-60
2023/03/07 11:30:29;;;;;;;2.23;1.70;;;;;;;21.81;39.18;98300.84;5109900;28;20600;-60
2023/03/07 11:33:10;;;;;;;4.60;1.70;;;;;;;21.86;39.96;98293.25;5109796;28;20224;-60
2023/03/07 11:35:59;;;;;;;2.40;1.50;;;;;;;20.78;38.57;98289.97;5109908;28;20211;-60
2023/03/07 11:38:36;;;;;;;1.80;1.43;;;;;;;20.94;38.97;98289.59;5110048;28;20228;-60
2023/03/07 11:41:07;;;;;;;1.73;1.30;;;;;;;21.32;39.26;98281.25;5109914;28;20200;-60
2023/03/07 11:43:54;;;;;;;2.00;1.50;;;;;;;20.63;38.82;98287.50;5109728;28;20646;-60
2023/03/07 11:46:34;;;;;;;2.47;1.50;;;;;;;21.14;38.99;98279.22;5109573;28;20201;-60